Time;durP1;ratioP1;P1;durP2;ratioP2;P2;SDS_P1;SDS_P2;PMS_P1;PMS_P2;Temp;Humidity;BMP_temperature;BMP_pressure;BME280_temperature;BME280_humidity;BME280_pressure;Samples;Min_cycle;Max_cycle;Signal;HPM_P1;HPM_P2
2021/01/29 00:02:05;;;;;;;2.13;1.23;;;14.90;59.90;;;;;;5019584;28;20198;-42
2021/01/29 00:04:30;;;;;;;1.53;1.20;;;14.90;59.80;;;;;;5029371;28;20194;-42
2021/01/29 00:06:56;;;;;;;1.13;1.00;;;14.90;59.80;;;;;;5029230;28;20295;-43
2021/01/29 00:09:21;;;;;;;2.23;1.40;;;14.90;60.20;;;;;;5018124;28;20222;-43
2021/01/29 00:11:47;;;;;;;2.73;1.40;;;15.10;59.90;;;;;;5027712;28;20229;-42
2021/01/29 00:14:14;;;;;;;2.20;1.60;;;15.20;59.60;;;;;;5027726;28;20297;-42
2021/01/29 00:16:39;;;;;;;1.83;1.30;;;15.20;59.30;;;;;;5030609;28;20436;-42
2021/01/29 00:19:05;;;;;;;1.57;1.13;;;15.20;59.40;;;;;;5029382;28;20504;-43
2021/01/29 00:21:31;;;;;;;1.87;1.20;;;15.30;59.20;;;;;;5028349;28;20188;-42
2021/01/29 00:23:56;;;;;;;1.63;1.00;;;15.20;59.80;;;;;;5029885;28;20201;-43
2021/01/29 00:26:22;;;;;;;1.60;1.17;;;15.10;59.40;;;;;;5036170;28;20258;-43
2021/01/29 00:28:47;;;;;;;3.23;1.20;;;15.20;59.30;;;;;;5030200;28;20272;-43
2021/01/29 00:31:13;;;;;;;1.30;1.20;;;15.20;59.60;;;;;;5030902;28;20228;-42
2021/01/29 00:33:39;;;;;;;1.23;1.13;;;14.80;59.70;;;;;;5029641;28;20247;-43
2021/01/29 00:36:05;;;;;;;1.30;1.10;;;15.00;60.10;;;;;;5018189;28;20197;-42
2021/01/29 00:38:30;;;;;;;1.13;0.80;;;15.00;60.00;;;;;;5016414;28;20661;-42
2021/01/29 00:40:56;;;;;;;1.47;0.80;;;15.10;60.00;;;;;;5026064;28;20424;-42
2021/01/29 00:43:22;;;;;;;1.03;0.90;;;15.10;59.70;;;;;;5027353;28;20635;-42
2021/01/29 00:45:47;;;;;;;0.80;0.80;;;15.20;59.70;;;;;;5026690;28;20255;-42
2021/01/29 00:48:13;;;;;;;0.90;0.80;;;15.20;59.60;;;;;;5029815;28;20299;-42
2021/01/29 00:50:39;;;;;;;0.60;0.60;;;15.30;59.60;;;;;;5021092;28;20247;-42
2021/01/29 00:53:06;;;;;;;0.80;0.80;;;15.40;59.60;;;;;;5025712;28;20204;-42
2021/01/29 00:55:32;;;;;;;0.63;0.60;;;15.30;59.50;;;;;;5019169;28;20894;-43
2021/01/29 00:57:58;;;;;;;0.80;0.80;;;15.20;59.60;;;;;;5026963;28;20471;-42
2021/01/29 01:00:23;;;;;;;1.03;0.73;;;15.30;59.80;;;;;;5027509;28;20583;-43
2021/01/29 01:02:49;;;;;;;1.03;0.90;;;15.30;59.80;;;;;;5027570;28;20448;-42
2021/01/29 01:05:17;;;;;;;1.43;1.00;;;15.40;59.70;;;;;;5028467;28;20280;-43
2021/01/29 01:07:43;;;;;;;2.53;0.90;;;15.40;59.70;;;;;;5024236;28;20237;-43
2021/01/29 01:10:10;;;;;;;1.57;1.10;;;15.50;59.60;;;;;;5022360;28;20479;-43
2021/01/29 01:12:35;;;;;;;1.10;1.00;;;15.70;59.40;;;;;;5023365;28;20225;-43
2021/01/29 01:15:13;;;;;;;1.00;0.90;;;16.00;58.90;;;;;;5025716;28;20870;-43
2021/01/29 01:17:39;;;;;;;1.33;0.97;;;16.10;58.20;;;;;;5025295;28;20439;-42
2021/01/29 01:20:08;;;;;;;1.43;1.13;;;16.10;58.20;;;;;;5021625;28;20850;-42
2021/01/29 01:22:34;;;;;;;1.00;1.00;;;16.00;58.40;;;;;;5023422;28;20526;-44
2021/01/29 01:24:59;;;;;;;0.80;0.80;;;16.00;58.50;;;;;;5027122;28;20524;-43
2021/01/29 01:27:25;;;;;;;0.90;0.90;;;16.20;58.30;;;;;;5024847;28;20251;-43
2021/01/29 01:29:51;;;;;;;2.57;1.00;;;16.40;57.90;;;;;;5025874;28;20208;-42
2021/01/29 01:32:17;;;;;;;1.13;1.03;;;16.30;58.40;;;;;;5027308;28;20436;-42
2021/01/29 01:34:42;;;;;;;1.00;0.90;;;16.30;58.10;;;;;;5028210;28;20197;-44
2021/01/29 01:37:08;;;;;;;1.27;0.90;;;16.40;58.20;;;;;;5025867;28;20196;-42
2021/01/29 01:39:33;;;;;;;1.20;0.90;;;16.50;58.10;;;;;;5023051;28;20267;-43
2021/01/29 01:41:59;;;;;;;1.00;1.00;;;16.60;57.80;;;;;;5020090;28;20565;-43
2021/01/29 01:44:42;;;;;;;3.03;0.90;;;16.60;57.80;;;;;;5016907;28;20948;-42
2021/01/29 01:47:27;;;;;;;1.63;0.90;;;16.60;57.90;;;;;;5016416;28;20435;-42
2021/01/29 01:50:01;;;;;;;1.00;0.90;;;16.60;58.00;;;;;;5027962;28;20435;-42
2021/01/29 01:52:34;;;;;;;0.80;0.80;;;16.60;58.00;;;;;;5029368;28;20526;-42
2021/01/29 01:55:10;;;;;;;0.80;0.80;;;16.70;57.90;;;;;;5019503;28;20433;-42
2021/01/29 01:57:38;;;;;;;1.57;0.90;;;16.70;57.70;;;;;;5027897;28;20468;-43
2021/01/29 02:00:11;;;;;;;1.03;0.90;;;16.80;57.60;;;;;;5013699;28;20442;-42
2021/01/29 02:02:40;;;;;;;0.93;0.93;;;16.90;57.80;;;;;;5021789;28;20507;-43
2021/01/29 02:05:15;;;;;;;1.87;0.83;;;16.80;57.10;;;;;;5025990;28;20424;-43
2021/01/29 02:07:44;;;;;;;2.23;0.90;;;16.70;57.30;;;;;;5023561;28;20507;-43
2021/01/29 02:10:10;;;;;;;1.00;1.00;;;16.70;57.60;;;;;;5026574;28;20463;-43
2021/01/29 02:12:35;;;;;;;0.77;0.77;;;16.60;57.80;;;;;;5028687;28;20444;-44
2021/01/29 02:15:04;;;;;;;0.77;0.77;;;16.50;58.30;;;;;;5021729;28;21847;-43
2021/01/29 02:18:17;;;;;;;1.03;1.00;;;16.60;58.40;;;;;;5021033;28;20201;-43
2021/01/29 02:20:59;;;;;;;0.80;0.80;;;16.60;58.30;;;;;;5006665;28;20472;-43
2021/01/29 02:23:46;;;;;;;0.83;0.83;;;16.50;58.20;;;;;;5015518;28;20923;-43
2021/01/29 02:26:32;;;;;;;0.80;0.80;;;16.60;58.10;;;;;;5029566;28;20440;-43
2021/01/29 02:29:10;;;;;;;0.90;0.90;;;16.70;58.00;;;;;;5027993;28;20444;-43
2021/01/29 02:31:49;;;;;;;1.33;1.23;;;16.60;57.80;;;;;;5028327;28;20589;-43
2021/01/29 02:34:23;;;;;;;0.90;0.90;;;16.40;58.30;;;;;;5019574;28;20433;-43
2021/01/29 02:37:21;;;;;;;1.10;0.90;;;16.50;58.40;;;;;;5028155;28;20485;-43
2021/01/29 02:39:57;;;;;;;1.00;0.90;;;16.50;59.00;;;;;;5023795;28;20519;-43
2021/01/29 02:43:08;;;;;;;0.90;0.90;;;16.40;58.20;;;;;;5027775;28;20436;-42
2021/01/29 02:45:41;;;;;;;0.90;0.80;;;16.20;58.70;;;;;;5009055;28;20445;-43
2021/01/29 02:48:44;;;;;;;0.80;0.80;;;16.00;59.50;;;;;;5023910;28;20432;-43
2021/01/29 02:51:24;;;;;;;0.80;0.80;;;15.80;59.30;;;;;;5023421;28;20479;-42
2021/01/29 02:54:13;;;;;;;0.80;0.80;;;15.70;59.90;;;;;;5027548;28;20451;-44
2021/01/29 02:56:58;;;;;;;1.00;0.90;;;15.50;60.30;;;;;;5029782;28;20444;-43
2021/01/29 02:59:47;;;;;;;1.27;0.70;;;15.20;61.20;;;;;;5022560;28;20463;-42
2021/01/29 03:02:19;;;;;;;1.00;0.80;;;15.10;61.60;;;;;;5015542;28;20441;-42
2021/01/29 03:05:04;;;;;;;0.73;0.70;;;14.90;62.30;;;;;;5020432;28;20436;-43
2021/01/29 03:07:48;;;;;;;1.03;0.93;;;14.80;62.70;;;;;;5024034;28;20475;-43
2021/01/29 03:10:25;;;;;;;0.70;0.60;;;14.70;63.50;;;;;;5030357;28;20963;-43
2021/01/29 03:12:59;;;;;;;0.60;0.60;;;14.60;63.70;;;;;;5024525;28;20440;-43
2021/01/29 03:15:28;;;;;;;0.60;0.60;;;14.20;64.60;;;;;;5029357;28;20447;-42
2021/01/29 03:17:59;;;;;;;1.23;0.90;;;14.40;64.70;;;;;;5022759;28;20849;-43
2021/01/29 03:20:42;;;;;;;0.73;0.73;;;14.40;64.30;;;;;;5032731;28;20498;-42
2021/01/29 03:23:13;;;;;;;0.67;0.50;;;14.30;64.60;;;;;;5028428;28;20951;-42
2021/01/29 03:25:44;;;;;;;0.90;0.90;;;14.20;65.10;;;;;;5025659;28;20440;-43
2021/01/29 03:28:17;;;;;;;1.10;0.70;;;14.20;65.20;;;;;;5023849;28;20460;-43
2021/01/29 03:30:47;;;;;;;0.80;0.80;;;14.40;64.70;;;;;;5030311;28;20924;-43
2021/01/29 03:33:13;;;;;;;3.37;1.83;;;14.40;64.50;;;;;;5028915;28;20991;-43
2021/01/29 03:35:40;;;;;;;0.80;0.80;;;14.30;64.30;;;;;;5030433;28;20455;-43
2021/01/29 03:38:18;;;;;;;0.60;0.60;;;14.20;64.70;;;;;;5024635;28;20585;-43
2021/01/29 03:40:52;;;;;;;0.70;0.60;;;14.20;65.00;;;;;;5030643;28;20489;-42
2021/01/29 03:43:27;;;;;;;1.00;0.83;;;14.20;65.40;;;;;;5031499;28;20445;-42
2021/01/29 03:46:33;;;;;;;0.80;0.80;;;14.10;65.30;;;;;;5024604;28;20486;-44
2021/01/29 03:49:16;;;;;;;1.10;0.77;;;14.10;65.90;;;;;;5026904;28;20458;-43
2021/01/29 03:51:58;;;;;;;0.70;0.50;;;14.20;65.90;;;;;;5029840;28;20853;-43
2021/01/29 03:54:34;;;;;;;0.60;0.60;;;14.10;65.80;;;;;;5030794;28;20448;-42
2021/01/29 03:57:21;;;;;;;0.60;0.60;;;13.90;65.80;;;;;;5024926;28;20433;-42
2021/01/29 04:00:18;;;;;;;1.33;0.77;;;14.20;65.50;;;;;;5019721;28;20436;-42
2021/01/29 04:02:55;;;;;;;1.00;0.80;;;14.40;64.90;;;;;;5030134;28;20497;-42
2021/01/29 04:05:27;;;;;;;1.77;0.70;;;14.40;64.20;;;;;;5026063;28;20440;-42
2021/01/29 04:08:09;;;;;;;1.13;0.60;;;14.50;64.20;;;;;;5016168;28;20479;-43
2021/01/29 04:10:35;;;;;;;0.80;0.70;;;14.50;64.20;;;;;;5022829;28;20561;-42
2021/01/29 04:13:21;;;;;;;0.90;0.70;;;14.50;64.10;;;;;;5029845;28;20666;-42
2021/01/29 04:15:49;;;;;;;1.63;0.63;;;14.60;64.00;;;;;;5029040;28;20443;-42
2021/01/29 04:18:18;;;;;;;0.73;0.73;;;14.30;64.10;;;;;;5025836;28;20440;-42
2021/01/29 04:20:46;;;;;;;0.70;0.60;;;14.50;64.70;;;;;;5032323;28;20448;-42
2021/01/29 04:23:20;;;;;;;0.60;0.60;;;14.10;65.20;;;;;;5027650;28;20841;-42
2021/01/29 04:25:55;;;;;;;2.93;1.97;;;13.80;65.10;;;;;;5031683;28;20432;-43
2021/01/29 04:28:23;;;;;;;3.37;1.70;;;13.80;66.40;;;;;;5029085;28;20450;-43
2021/01/29 04:30:53;;;;;;;3.17;2.43;;;14.00;66.70;;;;;;5021565;28;20578;-43
2021/01/29 04:33:29;;;;;;;2.10;1.47;;;14.10;66.20;;;;;;5019599;28;20452;-42
2021/01/29 04:35:57;;;;;;;1.17;0.90;;;14.30;65.90;;;;;;5025568;28;20432;-42
2021/01/29 04:38:40;;;;;;;1.47;1.00;;;14.50;64.90;;;;;;5020386;28;20433;-43
2021/01/29 04:41:19;;;;;;;1.33;0.70;;;14.70;64.60;;;;;;5023002;28;20451;-43
2021/01/29 04:44:10;;;;;;;0.83;0.67;;;14.90;64.00;;;;;;5020953;28;20439;-42
2021/01/29 04:46:41;;;;;;;1.00;0.90;;;15.00;63.20;;;;;;5022983;28;20444;-43
2021/01/29 04:49:33;;;;;;;0.80;0.70;;;15.10;62.50;;;;;;5024939;28;20951;-44
2021/01/29 04:52:33;;;;;;;0.90;0.70;;;15.10;62.30;;;;;;5025178;28;20491;-42
2021/01/29 04:55:25;;;;;;;0.87;0.70;;;15.30;62.00;;;;;;5019156;28;20945;-43
2021/01/29 04:58:08;;;;;;;2.60;0.60;;;15.20;61.50;;;;;;5025900;28;20497;-43
2021/01/29 05:00:52;;;;;;;0.70;0.60;;;15.20;62.00;;;;;;5025432;28;20456;-43
2021/01/29 05:03:39;;;;;;;0.63;0.63;;;15.30;61.70;;;;;;5028009;28;20527;-42
2021/01/29 05:06:29;;;;;;;0.80;0.60;;;15.20;61.40;;;;;;5026981;28;20436;-43
2021/01/29 05:09:11;;;;;;;0.50;0.50;;;15.10;61.50;;;;;;5029545;28;20444;-43
2021/01/29 05:12:01;;;;;;;0.70;0.70;;;15.00;61.80;;;;;;5020931;28;20637;-43
2021/01/29 05:14:54;;;;;;;1.23;0.57;;;14.80;62.40;;;;;;5028352;28;20439;-42
2021/01/29 05:17:57;;;;;;;0.60;0.50;;;14.80;62.60;;;;;;5019018;28;20448;-43
2021/01/29 05:20:48;;;;;;;0.67;0.67;;;14.80;62.70;;;;;;5029095;28;20439;-42
2021/01/29 05:23:47;;;;;;;1.13;0.50;;;14.80;62.90;;;;;;5023954;28;20486;-43
2021/01/29 05:26:21;;;;;;;0.77;0.60;;;14.80;62.90;;;;;;5022334;28;20476;-43
2021/01/29 05:29:17;;;;;;;0.80;0.60;;;14.70;62.90;;;;;;5028991;28;20443;-43
2021/01/29 05:32:12;;;;;;;0.97;0.70;;;14.60;63.20;;;;;;5024183;28;20488;-43
2021/01/29 05:34:45;;;;;;;0.60;0.50;;;14.50;63.70;;;;;;5024803;28;20952;-43
2021/01/29 05:37:24;;;;;;;0.83;0.70;;;14.40;64.00;;;;;;5027425;28;20456;-44
2021/01/29 05:40:08;;;;;;;1.37;0.70;;;13.90;65.60;;;;;;5023102;28;20444;-44
2021/01/29 05:43:03;;;;;;;0.80;0.50;;;13.80;66.90;;;;;;5023257;28;20515;-43
2021/01/29 05:46:07;;;;;;;0.80;0.80;;;13.80;67.10;;;;;;5028317;28;20954;-42
2021/01/29 05:48:58;;;;;;;0.90;0.80;;;13.90;67.30;;;;;;5027687;28;20447;-43
2021/01/29 05:51:29;;;;;;;0.63;0.50;;;13.90;66.90;;;;;;5027964;28;20483;-43
2021/01/29 05:54:13;;;;;;;0.70;0.60;;;13.80;67.10;;;;;;5021358;28;20433;-43
2021/01/29 05:56:49;;;;;;;0.50;0.50;;;13.90;67.10;;;;;;5028245;28;20459;-43
2021/01/29 05:59:38;;;;;;;0.60;0.60;;;13.90;66.80;;;;;;5022518;28;20519;-43
2021/01/29 06:02:50;;;;;;;0.60;0.40;;;13.80;66.40;;;;;;5018460;28;20441;-43
2021/01/29 06:05:26;;;;;;;0.80;0.70;;;13.70;66.80;;;;;;5006440;28;20466;-43
2021/01/29 06:08:04;;;;;;;0.73;0.60;;;13.50;67.40;;;;;;5028937;28;20481;-43
2021/01/29 06:10:41;;;;;;;0.70;0.63;;;13.50;67.30;;;;;;5028811;28;21194;-43
2021/01/29 06:13:34;;;;;;;0.80;0.63;;;13.50;67.50;;;;;;5029757;28;20436;-43
2021/01/29 06:16:48;;;;;;;0.67;0.63;;;13.30;68.00;;;;;;5019096;28;20451;-43
2021/01/29 06:19:48;;;;;;;0.83;0.83;;;13.30;68.00;;;;;;5024827;28;20443;-43
2021/01/29 06:22:41;;;;;;;0.60;0.60;;;13.30;67.70;;;;;;5026341;28;20432;-43
2021/01/29 06:25:20;;;;;;;0.90;0.60;;;13.20;68.40;;;;;;5029114;28;20450;-42
2021/01/29 06:28:04;;;;;;;1.00;0.60;;;13.00;69.10;;;;;;5022623;28;20450;-42
2021/01/29 06:30:40;;;;;;;0.50;0.50;;;12.90;70.30;;;;;;5020236;28;20513;-42
2021/01/29 06:33:22;;;;;;;0.70;0.60;;;12.80;70.80;;;;;;5031733;28;20809;-42
2021/01/29 06:36:31;;;;;;;3.80;0.70;;;12.70;71.50;;;;;;5024099;28;20519;-42
2021/01/29 06:39:25;;;;;;;2.70;0.80;;;12.70;71.70;;;;;;4998884;28;20440;-42
2021/01/29 06:42:15;;;;;;;1.40;0.93;;;12.60;72.20;;;;;;4997475;28;20452;-42
2021/01/29 06:45:28;;;;;;;1.13;0.67;;;12.50;73.30;;;;;;5023975;28;20454;-42
2021/01/29 06:47:59;;;;;;;1.57;0.63;;;12.20;73.80;;;;;;4984820;28;20452;-42
2021/01/29 06:50:55;;;;;;;6.83;0.90;;;12.20;74.50;;;;;;5014813;28;20511;-42
2021/01/29 06:53:43;;;;;;;1.57;0.73;;;12.30;74.10;;;;;;5031422;28;20849;-42
2021/01/29 06:56:32;;;;;;;0.90;0.70;;;12.50;72.70;;;;;;5033350;28;20981;-43
2021/01/29 06:59:07;;;;;;;1.27;0.60;;;12.50;72.50;;;;;;5032846;28;20444;-43
2021/01/29 07:01:35;;;;;;;2.77;0.60;;;12.50;72.40;;;;;;5028929;28;20471;-42
2021/01/29 07:04:36;;;;;;;1.37;0.83;;;12.50;72.20;;;;;;5032986;28;20479;-42
2021/01/29 07:07:40;;;;;;;3.03;1.00;;;12.50;72.30;;;;;;5022998;28;20471;-43
2021/01/29 07:10:15;;;;;;;0.70;0.70;;;12.60;72.40;;;;;;5028032;28;21122;-43
2021/01/29 07:12:52;;;;;;;1.60;0.90;;;12.90;71.50;;;;;;5023657;28;20466;-43
2021/01/29 07:15:26;;;;;;;2.37;0.70;;;13.10;69.90;;;;;;5032635;28;21022;-42
2021/01/29 07:18:15;;;;;;;0.80;0.70;;;13.30;69.20;;;;;;5023645;28;20486;-42
2021/01/29 07:20:50;;;;;;;1.50;0.67;;;13.60;68.00;;;;;;5036495;28;20472;-42
2021/01/29 07:23:40;;;;;;;1.70;0.80;;;13.50;67.00;;;;;;5034580;28;20430;-42
2021/01/29 07:26:19;;;;;;;0.80;0.63;;;13.50;66.20;;;;;;5023893;28;20451;-42
2021/01/29 07:29:17;;;;;;;0.70;0.50;;;13.60;65.80;;;;;;5030703;28;20435;-42
2021/01/29 07:31:55;;;;;;;0.60;0.60;;;13.40;65.40;;;;;;5035885;28;20491;-42
2021/01/29 07:34:42;;;;;;;0.90;0.90;;;13.20;65.90;;;;;;5032206;28;20468;-42
2021/01/29 07:37:28;;;;;;;1.57;0.60;;;13.40;65.20;;;;;;5030296;28;20443;-43
2021/01/29 07:40:20;;;;;;;1.90;0.60;;;13.60;65.00;;;;;;5027038;28;20456;-42
2021/01/29 07:43:20;;;;;;;2.00;0.90;;;13.60;64.60;;;;;;5022078;28;20610;-42
2021/01/29 07:46:07;;;;;;;0.97;0.90;;;13.80;64.20;;;;;;5037727;28;20440;-43
2021/01/29 07:48:57;;;;;;;0.90;0.60;;;13.90;63.20;;;;;;5035353;28;20491;-42
2021/01/29 07:51:35;;;;;;;1.73;0.90;;;13.80;62.90;;;;;;5036360;28;20496;-42
2021/01/29 07:54:34;;;;;;;1.10;1.00;;;13.80;63.80;;;;;;5039590;28;20426;-42
2021/01/29 07:57:36;;;;;;;3.83;3.10;;;14.00;63.10;;;;;;5020256;28;20491;-42
2021/01/29 08:00:22;;;;;;;0.90;0.70;;;14.20;62.50;;;;;;5019294;28;21012;-42
2021/01/29 08:03:06;;;;;;;0.80;0.70;;;14.20;61.10;;;;;;5014400;28;20924;-42
2021/01/29 08:05:58;;;;;;;0.80;0.60;;;13.90;61.70;;;;;;5023501;28;20439;-42
2021/01/29 08:08:29;;;;;;;1.33;0.70;;;14.00;62.20;;;;;;5030431;28;20533;-41
2021/01/29 08:10:58;;;;;;;0.80;0.50;;;13.80;62.20;;;;;;5030103;28;20484;-42
2021/01/29 08:13:59;;;;;;;2.30;0.50;;;13.70;62.40;;;;;;5031101;28;20923;-41
2021/01/29 08:16:42;;;;;;;1.63;0.90;;;13.80;62.50;;;;;;5028614;28;20573;-42
2021/01/29 08:19:22;;;;;;;1.07;0.60;;;14.10;62.20;;;;;;5030419;28;20444;-42
2021/01/29 08:22:16;;;;;;;1.30;0.73;;;14.10;61.10;;;;;;5029260;28;20490;-42
2021/01/29 08:25:15;;;;;;;0.73;0.70;;;14.20;61.80;;;;;;5030794;28;20436;-42
2021/01/29 08:28:35;;;;;;;2.20;0.70;;;14.10;61.70;;;;;;5030880;28;21008;-42
2021/01/29 08:31:32;;;;;;;0.80;0.70;;;13.90;61.70;;;;;;5009205;28;20579;-42
2021/01/29 08:34:38;;;;;;;0.70;0.60;;;13.70;61.30;;;;;;5028942;28;20432;-42
2021/01/29 08:37:11;;;;;;;3.13;0.70;;;13.80;62.10;;;;;;5030017;28;20467;-42
2021/01/29 08:39:55;;;;;;;0.80;0.70;;;13.90;62.10;;;;;;5029097;28;20435;-42
2021/01/29 08:42:36;;;;;;;0.60;0.50;;;13.90;61.90;;;;;;5029769;28;20543;-43
2021/01/29 08:45:29;;;;;;;0.80;0.50;;;13.90;62.00;;;;;;5030648;28;20510;-42
2021/01/29 08:48:27;;;;;;;2.63;0.70;;;14.10;61.90;;;;;;5024699;28;20994;-43
2021/01/29 08:51:14;;;;;;;0.90;0.73;;;14.20;61.80;;;;;;5030753;28;20489;-43
2021/01/29 08:53:58;;;;;;;0.53;0.53;;;13.90;61.60;;;;;;5028796;28;20448;-43
2021/01/29 08:56:54;;;;;;;7.47;2.10;;;13.90;62.80;;;;;;5034191;28;20788;-45
2021/01/29 08:59:26;;;;;;;0.67;0.67;;;14.00;63.40;;;;;;5029646;28;20478;-43
2021/01/29 09:01:52;;;;;;;1.17;1.00;;;14.00;63.50;;;;;;5029029;28;20424;-43
2021/01/29 09:04:46;;;;;;;0.83;0.83;;;13.90;63.50;;;;;;5029575;28;20446;-43
2021/01/29 09:07:17;;;;;;;0.90;0.70;;;13.90;63.30;;;;;;5026574;28;20263;-42
2021/01/29 09:09:43;;;;;;;1.10;0.80;;;13.70;62.80;;;;;;5019380;28;20505;-42
2021/01/29 09:12:19;;;;;;;2.00;0.70;;;13.70;62.50;;;;;;5033309;28;20583;-43
2021/01/29 09:15:10;;;;;;;0.80;0.80;;;14.00;61.70;;;;;;5028363;28;20514;-42
2021/01/29 09:17:58;;;;;;;1.53;0.70;;;13.80;59.90;;;;;;5018099;28;20954;-42
2021/01/29 09:20:31;;;;;;;4.63;0.77;;;14.00;59.70;;;;;;5027469;28;20527;-42
2021/01/29 09:23:16;;;;;;;1.47;0.90;;;13.90;59.80;;;;;;5023518;28;20894;-42
2021/01/29 09:26:25;;;;;;;2.17;0.87;;;14.10;58.80;;;;;;5021595;28;20442;-43
2021/01/29 09:29:16;;;;;;;1.33;0.70;;;14.00;58.10;;;;;;5005700;28;21026;-43
2021/01/29 09:31:45;;;;;;;1.40;0.70;;;14.10;58.50;;;;;;5023893;28;20483;-42
2021/01/29 09:34:23;;;;;;;2.03;1.17;;;14.10;58.90;;;;;;5027146;28;20420;-42
2021/01/29 09:36:56;;;;;;;1.90;1.03;;;14.00;56.90;;;;;;5022955;28;20522;-43
2021/01/29 09:39:31;;;;;;;3.87;1.20;;;14.50;57.80;;;;;;5025940;28;20915;-43
2021/01/29 09:42:21;;;;;;;1.20;1.03;;;14.50;56.70;;;;;;5025967;28;20737;-43
2021/01/29 09:45:08;;;;;;;2.57;1.10;;;14.50;56.10;;;;;;5026741;28;20970;-43
2021/01/29 09:47:43;;;;;;;2.17;0.80;;;14.70;56.60;;;;;;5024975;28;20801;-43
2021/01/29 09:50:16;;;;;;;1.43;0.90;;;14.70;55.90;;;;;;5024287;28;20439;-43
2021/01/29 09:53:05;;;;;;;1.00;0.70;;;14.60;55.50;;;;;;5029290;28;20529;-43
2021/01/29 09:55:38;;;;;;;1.97;1.10;;;14.80;55.80;;;;;;5026821;28;20440;-43
2021/01/29 09:58:22;;;;;;;2.53;0.87;;;14.80;56.00;;;;;;5028087;28;20448;-43
2021/01/29 10:01:02;;;;;;;3.50;1.50;;;14.90;54.90;;;;;;5026650;28;20456;-43
2021/01/29 10:03:45;;;;;;;3.83;1.10;;;14.70;54.90;;;;;;5017361;28;20459;-42
2021/01/29 10:06:19;;;;;;;2.87;1.10;;;14.80;55.40;;;;;;5019485;28;20436;-43
2021/01/29 10:08:54;;;;;;;1.83;0.80;;;14.80;54.60;;;;;;5036485;28;20435;-44
2021/01/29 10:11:45;;;;;;;2.50;1.07;;;14.90;54.90;;;;;;5033600;28;20479;-43
2021/01/29 10:14:43;;;;;;;1.93;1.00;;;14.80;53.80;;;;;;5031897;28;20502;-43
2021/01/29 10:17:23;;;;;;;3.33;1.17;;;15.10;53.60;;;;;;5032520;28;20452;-44
2021/01/29 10:19:57;;;;;;;3.07;1.00;;;15.40;53.30;;;;;;5032765;28;20439;-43
2021/01/29 10:22:23;;;;;;;1.73;1.10;;;15.20;52.60;;;;;;5028647;28;20465;-44
2021/01/29 10:25:18;;;;;;;5.73;1.67;;;15.30;52.70;;;;;;5031791;28;20907;-43
2021/01/29 10:28:01;;;;;;;5.07;1.80;;;15.10;51.70;;;;;;5029849;28;20668;-43
2021/01/29 10:30:58;;;;;;;1.80;1.20;;;14.80;51.50;;;;;;5030053;28;20873;-43
2021/01/29 10:33:35;;;;;;;3.37;1.43;;;14.70;52.00;;;;;;5030851;28;20439;-43
2021/01/29 10:36:05;;;;;;;4.70;1.30;;;14.80;51.80;;;;;;5030175;28;20479;-43
2021/01/29 10:39:14;;;;;;;3.67;1.20;;;14.60;51.70;;;;;;5032030;28;20452;-43
2021/01/29 10:41:48;;;;;;;7.47;1.50;;;14.70;51.60;;;;;;5029530;28;20840;-43
2021/01/29 10:44:31;;;;;;;2.90;1.10;;;15.10;50.90;;;;;;5030581;28;20440;-44
2021/01/29 10:47:12;;;;;;;4.03;1.60;;;15.30;50.60;;;;;;5032072;28;20444;-43
2021/01/29 10:49:57;;;;;;;5.47;1.43;;;15.60;49.70;;;;;;5031359;28;20447;-44
2021/01/29 10:53:04;;;;;;;2.70;1.30;;;16.00;49.80;;;;;;5032034;28;20498;-43
2021/01/29 10:56:01;;;;;;;2.97;1.10;;;16.30;48.40;;;;;;5030028;28;21357;-43
2021/01/29 10:58:44;;;;;;;3.93;1.20;;;16.20;48.00;;;;;;5030793;28;20946;-43
2021/01/29 11:01:28;;;;;;;7.37;2.70;;;16.70;48.30;;;;;;5028386;28;20510;-45
2021/01/29 11:04:08;;;;;;;4.13;1.47;;;16.70;47.30;;;;;;5028725;28;20436;-44
2021/01/29 11:06:53;;;;;;;1.97;1.20;;;16.60;46.80;;;;;;5035751;28;20477;-44
2021/01/29 11:09:35;;;;;;;1.87;1.20;;;16.80;47.10;;;;;;5028067;28;20436;-43
2021/01/29 11:12:25;;;;;;;3.23;1.77;;;16.80;46.80;;;;;;5030430;28;20564;-43
2021/01/29 11:14:59;;;;;;;3.47;1.20;;;16.50;46.70;;;;;;5028513;28;20498;-44
2021/01/29 11:17:38;;;;;;;3.83;1.40;;;16.40;47.00;;;;;;5031273;28;20446;-44
2021/01/29 11:20:30;;;;;;;3.00;1.40;;;16.10;48.20;;;;;;5029910;28;20431;-43
2021/01/29 11:23:20;;;;;;;4.20;1.30;;;16.20;48.00;;;;;;5027674;28;20435;-43
2021/01/29 11:25:46;;;;;;;3.83;1.03;;;16.30;48.40;;;;;;5028484;28;20786;-44
2021/01/29 11:28:28;;;;;;;5.03;1.17;;;16.10;48.60;;;;;;5027738;28;20447;-44
2021/01/29 11:31:08;;;;;;;3.33;1.60;;;16.20;48.90;;;;;;5031290;28;20244;-43
2021/01/29 11:33:37;;;;;;;2.17;1.27;;;16.30;48.80;;;;;;5030050;28;20804;-43
2021/01/29 11:36:11;;;;;;;1.87;1.23;;;16.30;48.60;;;;;;5028384;28;20476;-43
2021/01/29 11:38:41;;;;;;;8.30;1.67;;;16.10;48.90;;;;;;5027242;28;20420;-43
2021/01/29 11:41:28;;;;;;;5.23;1.80;;;15.70;48.90;;;;;;5028737;28;20539;-44
2021/01/29 11:44:12;;;;;;;5.30;1.60;;;15.60;50.00;;;;;;5031174;28;20428;-44
2021/01/29 11:47:09;;;;;;;2.40;1.10;;;15.50;49.90;;;;;;5029324;28;20954;-43
2021/01/29 11:49:46;;;;;;;3.90;1.63;;;15.40;50.00;;;;;;5029902;28;20435;-43
2021/01/29 11:52:32;;;;;;;3.60;1.43;;;15.40;49.90;;;;;;5025694;28;20487;-44
2021/01/29 11:55:10;;;;;;;3.63;1.20;;;15.40;49.90;;;;;;5027230;28;20452;-44
2021/01/29 11:58:13;;;;;;;5.07;1.40;;;15.10;49.90;;;;;;5030642;28;20442;-44
2021/01/29 12:00:59;;;;;;;4.07;1.37;;;15.40;50.40;;;;;;5029563;28;20447;-43
2021/01/29 12:03:47;;;;;;;2.73;1.20;;;15.50;49.80;;;;;;5022927;28;20499;-44
2021/01/29 12:06:31;;;;;;;3.30;1.13;;;15.70;49.80;;;;;;5027294;28;20531;-43
2021/01/29 12:09:15;;;;;;;2.50;0.93;;;15.90;49.30;;;;;;5017411;28;20447;-42
2021/01/29 12:12:02;;;;;;;2.97;1.20;;;15.70;49.20;;;;;;5020566;28;20484;-42
2021/01/29 12:14:52;;;;;;;2.70;1.10;;;15.50;49.60;;;;;;5028236;28;20813;-42
2021/01/29 12:17:27;;;;;;;5.30;1.10;;;15.40;50.20;;;;;;5031204;28;20440;-42
2021/01/29 12:20:04;;;;;;;2.70;1.13;;;15.50;50.70;;;;;;5029880;28;20450;-42
2021/01/29 12:22:35;;;;;;;3.73;1.40;;;15.70;50.90;;;;;;5023204;28;20435;-42
2021/01/29 12:25:39;;;;;;;7.70;1.53;;;15.70;50.00;;;;;;5030928;28;20431;-42
2021/01/29 12:28:22;;;;;;;2.30;1.10;;;15.50;49.50;;;;;;5001700;28;20455;-42
2021/01/29 12:31:02;;;;;;;4.33;1.03;;;15.60;49.20;;;;;;4986299;28;20487;-42
2021/01/29 12:33:31;;;;;;;3.87;1.20;;;15.60;48.90;;;;;;5022513;28;20443;-42
2021/01/29 12:36:07;;;;;;;3.77;1.33;;;15.50;48.70;;;;;;5027253;28;20459;-42
2021/01/29 12:38:45;;;;;;;5.90;1.50;;;15.30;48.90;;;;;;5024809;28;20447;-42
2021/01/29 12:41:21;;;;;;;4.63;1.27;;;15.10;48.50;;;;;;5046907;28;20459;-42
2021/01/29 12:44:10;;;;;;;3.60;1.60;;;15.00;49.00;;;;;;5037040;28;20534;-41
2021/01/29 12:46:42;;;;;;;3.77;1.33;;;15.00;48.70;;;;;;5022725;28;20456;-42
2021/01/29 12:49:25;;;;;;;2.80;1.53;;;14.70;49.50;;;;;;5028987;28;20452;-42
2021/01/29 12:51:58;;;;;;;6.17;1.40;;;14.60;49.90;;;;;;5018439;28;20496;-42
2021/01/29 12:54:46;;;;;;;5.53;1.53;;;14.70;50.00;;;;;;5025405;28;21021;-41
2021/01/29 12:57:20;;;;;;;2.37;1.50;;;14.60;50.70;;;;;;5017831;28;20871;-42
2021/01/29 13:00:05;;;;;;;5.23;1.13;;;14.70;50.90;;;;;;5021611;28;20954;-42
2021/01/29 13:02:53;;;;;;;4.40;1.40;;;14.90;51.20;;;;;;5018148;28;20440;-41
2021/01/29 13:05:39;;;;;;;5.00;1.77;;;15.30;50.40;;;;;;5024362;28;20448;-42
2021/01/29 13:08:35;;;;;;;5.40;1.70;;;14.90;50.00;;;;;;5022850;28;20483;-42
2021/01/29 13:11:04;;;;;;;3.53;1.60;;;14.80;50.80;;;;;;5028665;28;20519;-42
2021/01/29 13:13:54;;;;;;;4.00;1.27;;;15.10;50.90;;;;;;5027775;28;20489;-42
2021/01/29 13:16:27;;;;;;;1.83;1.00;;;14.80;50.80;;;;;;5025729;28;20515;-42
2021/01/29 13:19:03;;;;;;;4.43;1.40;;;14.50;51.70;;;;;;5026599;28;20467;-41
2021/01/29 13:21:30;;;;;;;3.10;1.23;;;14.70;52.10;;;;;;5021193;28;20507;-42
2021/01/29 13:23:58;;;;;;;2.87;1.33;;;14.70;51.80;;;;;;5024048;28;20443;-42
2021/01/29 13:26:34;;;;;;;2.47;1.00;;;14.80;51.60;;;;;;5027861;28;20440;-42
2021/01/29 13:29:05;;;;;;;2.10;0.93;;;14.70;51.70;;;;;;5027965;28;20443;-42
2021/01/29 13:31:38;;;;;;;4.27;1.17;;;14.60;51.90;;;;;;5028625;28;20516;-42
2021/01/29 13:34:15;;;;;;;1.60;0.97;;;14.40;51.80;;;;;;5026422;28;20490;-42
2021/01/29 13:37:04;;;;;;;2.80;1.03;;;14.70;52.30;;;;;;5027528;28;20436;-42
2021/01/29 13:39:39;;;;;;;1.87;0.80;;;14.50;52.00;;;;;;5024022;28;20974;-42
2021/01/29 13:42:10;;;;;;;1.37;0.93;;;14.40;52.40;;;;;;5028085;28;20444;-42
2021/01/29 13:44:45;;;;;;;2.00;1.07;;;14.10;52.90;;;;;;5026953;28;20805;-42
2021/01/29 13:47:42;;;;;;;2.40;1.20;;;14.20;53.20;;;;;;5028784;28;20841;-42
2021/01/29 13:50:32;;;;;;;1.10;0.83;;;14.30;52.70;;;;;;5029191;28;20444;-42
2021/01/29 13:53:01;;;;;;;1.60;1.13;;;14.40;52.90;;;;;;5029712;28;20448;-42
2021/01/29 13:55:27;;;;;;;2.27;1.17;;;14.40;52.90;;;;;;5026382;28;20821;-42
2021/01/29 13:58:41;;;;;;;1.67;1.40;;;14.20;53.20;;;;;;5028692;28;20432;-42